Time;durP1;ratioP1;P1;durP2;ratioP2;P2;SDS_P1;SDS_P2;PMS_P1;PMS_P2;Temp;Humidity;BMP_temperature;BMP_pressure;BME280_temperature;BME280_humidity;BME280_pressure;Samples;Min_cycle;Max_cycle;Signal;HPM_P1;HPM_P2
2022/09/15 00:01:42;;;;;;;7.30;2.60;;;;;;;17.06;75.96;100111.86;108158;1241;62243;-72
2022/09/15 00:04:11;;;;;;;4.70;2.60;;;;;;;17.09;76.69;100107.45;108092;1241;62069;-72
2022/09/15 00:06:40;;;;;;;4.20;2.80;;;;;;;17.11;76.97;100102.29;108228;1241;64191;-72
2022/09/15 00:09:09;;;;;;;6.30;3.10;;;;;;;17.11;76.56;100097.21;108166;1241;70575;-72
2022/09/15 00:11:38;;;;;;;4.80;3.20;;;;;;;17.09;76.69;100087.43;107905;1241;67929;-71
2022/09/15 00:14:07;;;;;;;4.50;2.80;;;;;;;17.05;77.02;100082.33;108062;1241;70803;-71
2022/09/15 00:16:36;;;;;;;3.50;2.80;;;;;;;17.01;77.39;100078.66;108008;1241;59615;-71
2022/09/15 00:19:05;;;;;;;3.70;2.60;;;;;;;16.97;77.58;100079.86;108024;1240;58812;-72
2022/09/15 00:21:38;;;;;;;4.50;2.80;;;;;;;16.92;77.44;100079.04;107758;1241;74528;-71
2022/09/15 00:24:08;;;;;;;3.90;3.10;;;;;;;16.87;78.18;100076.87;107664;1241;73089;-70
2022/09/15 00:26:37;;;;;;;5.00;2.70;;;;;;;16.80;78.51;100075.98;108019;1239;70252;-71
2022/09/15 00:29:06;;;;;;;3.80;2.80;;;;;;;16.76;78.19;100079.82;108019;1241;73634;-70
2022/09/15 00:31:35;;;;;;;4.90;2.80;;;;;;;16.73;78.29;100084.59;107992;1240;64276;-68
2022/09/15 00:34:05;;;;;;;3.60;2.60;;;;;;;16.68;78.87;100089.95;107750;1241;61159;-71
2022/09/15 00:36:34;;;;;;;5.30;3.10;;;;;;;16.66;79.21;100095.63;107953;1241;63596;-70
2022/09/15 00:39:04;;;;;;;4.30;2.80;;;;;;;16.63;79.60;100093.25;107960;1241;70694;-70
2022/09/15 00:41:34;;;;;;;5.10;2.80;;;;;;;16.61;79.71;100094.55;107773;1243;59868;-69
2022/09/15 00:44:26;;;;;;;6.80;2.70;;;;;;;16.57;80.49;100098.34;108009;1241;73977;-74
2022/09/15 00:46:56;;;;;;;3.40;2.50;;;;;;;16.55;77.90;100094.63;107847;1241;62575;-72
2022/09/15 00:49:50;;;;;;;3.40;2.80;;;;;;;16.43;80.57;100083.31;108078;1241;61164;-73
2022/09/15 00:52:52;;;;;;;7.10;3.20;;;;;;;16.34;81.56;100070.23;108158;1241;72462;-71
2022/09/15 00:55:39;;;;;;;5.90;3.00;;;;;;;16.29;81.45;100068.17;106156;1243;2154749;-72
2022/09/15 00:58:21;;;;;;;4.60;3.00;;;;;;;16.22;81.30;100059.77;108072;1243;68511;-72
2022/09/15 01:01:03;;;;;;;4.10;2.90;;;;;;;16.17;81.45;100054.16;107979;1241;63209;-71
2022/09/15 01:03:33;;;;;;;3.80;2.80;;;;;;;16.08;81.96;100052.23;107784;1241;62983;-73
2022/09/15 01:06:29;;;;;;;4.10;3.00;;;;;;;15.99;82.31;100046.23;107938;1241;61405;-73
2022/09/15 01:09:04;;;;;;;4.80;3.10;;;;;;;15.90;82.64;100041.64;108189;1241;74317;-71
2022/09/15 01:11:34;;;;;;;5.70;3.20;;;;;;;15.87;82.30;100038.70;108596;1241;70023;-70
2022/09/15 01:14:04;;;;;;;4.90;2.90;;;;;;;15.82;83.04;100040.89;107869;1243;68105;-73
2022/09/15 01:16:54;;;;;;;4.00;3.10;;;;;;;15.80;83.08;100043.42;108151;1241;71488;-73
2022/09/15 01:20:07;;;;;;;4.60;2.90;;;;;;;15.77;82.01;100045.35;108152;1241;61345;-70
2022/09/15 01:22:54;;;;;;;5.80;3.10;;;;;;;15.70;82.87;100038.72;108227;1241;60264;-71
2022/09/15 01:26:08;;;;;;;3.50;2.70;;;;;;;15.63;84.49;100027.83;108152;1241;74287;-72
2022/09/15 01:29:19;;;;;;;3.90;2.80;;;;;;;15.62;84.65;100008.30;107792;1241;72936;-70
2022/09/15 01:35:10;;;;;;;4.30;2.90;;;;;;;15.71;84.37;99992.61;108165;1241;71422;-71
2022/09/15 01:37:49;;;;;;;7.00;3.20;;;;;;;15.76;84.05;99985.95;107903;1241;63358;-70
2022/09/15 01:40:21;;;;;;;7.10;3.00;;;;;;;15.81;83.96;99987.72;108166;1241;59789;-70
2022/09/15 01:42:52;;;;;;;4.50;2.90;;;;;;;15.85;83.08;99993.40;108184;1241;74344;-69
2022/09/15 01:45:33;;;;;;;4.90;3.00;;;;;;;15.88;81.30;99997.85;108179;1241;71605;-70
2022/09/15 01:48:05;;;;;;;5.00;3.10;;;;;;;15.87;80.45;100008.94;108163;1241;70090;-69
2022/09/15 01:50:46;;;;;;;6.10;3.60;;;;;;;15.84;80.05;100006.00;107863;1241;74526;-71
2022/09/15 01:53:19;;;;;;;4.50;2.80;;;;;;;15.77;81.96;99997.91;107974;1241;62647;-71
2022/09/15 01:55:55;;;;;;;4.10;2.70;;;;;;;15.74;83.54;99994.92;107801;1241;59547;-70
2022/09/15 01:58:24;;;;;;;4.70;3.20;;;;;;;15.76;83.93;100000.19;108150;1240;74413;-71
2022/09/15 02:01:05;;;;;;;5.70;3.10;;;;;;;15.77;83.90;100010.57;108116;1241;73019;-71
2022/09/15 02:03:47;;;;;;;4.80;3.20;;;;;;;15.78;82.65;100011.16;108139;1241;69555;-70
2022/09/15 02:06:35;;;;;;;4.50;3.00;;;;;;;15.77;82.91;99994.39;108118;1241;74236;-70
2022/09/15 02:09:18;;;;;;;6.80;2.90;;;;;;;15.76;82.61;99983.08;108123;1241;61889;-69
2022/09/15 02:12:02;;;;;;;;;;;;;;;15.74;83.47;99976.20;107900;1242;59502;-70
2022/09/15 02:14:56;;;;;;;4.10;3.30;;;;;;;15.67;83.97;99969.20;108138;1241;73639;-69
2022/09/15 02:17:29;;;;;;;3.60;2.90;;;;;;;15.64;84.46;99971.26;108154;1241;70251;-69
2022/09/15 02:20:32;;;;;;;4.00;2.60;;;;;;;15.58;83.22;99971.42;108204;1241;70513;-70
2022/09/15 02:23:14;;;;;;;5.50;3.10;;;;;;;15.51;83.96;99971.56;108221;1241;73554;-69
2022/09/15 02:25:50;;;;;;;4.00;3.20;;;;;;;15.41;86.18;99972.75;108145;1241;60986;-70
2022/09/15 02:28:25;;;;;;;4.80;3.10;;;;;;;15.37;84.98;99974.69;108156;1241;61094;-70
2022/09/15 02:30:57;;;;;;;10.70;3.40;;;;;;;15.33;84.82;99973.21;108109;1241;73355;-69
2022/09/15 02:33:34;;;;;;;6.60;3.10;;;;;;;15.31;84.74;99975.84;108146;1241;70319;-66
2022/09/15 02:36:04;;;;;;;4.80;3.10;;;;;;;15.29;84.78;99977.54;108252;1241;69130;-70
2022/09/15 02:38:39;;;;;;;5.20;2.90;;;;;;;15.21;86.50;99973.61;107994;1241;73638;-71
2022/09/15 02:41:09;;;;;;;5.10;3.20;;;;;;;15.20;86.69;99960.59;108186;1241;62997;-72
2022/09/15 02:43:45;;;;;;;6.00;3.20;;;;;;;15.20;86.46;99956.04;108322;1241;59427;-70
2022/09/15 02:46:18;;;;;;;6.50;3.70;;;;;;;15.19;86.44;99951.73;108002;1241;72482;-73
2022/09/15 02:48:47;;;;;;;;;;;;;;;15.18;86.60;99943.54;108419;1240;71237;-72
2022/09/15 02:51:17;;;;;;;5.60;3.60;;;;;;;15.17;86.66;99933.70;108262;1241;70748;-72
2022/09/15 02:53:46;;;;;;;5.00;3.60;;;;;;;15.18;87.05;99938.80;108340;1241;71099;-71
2022/09/15 02:56:15;;;;;;;6.20;3.50;;;;;;;15.20;85.57;99938.47;108116;1241;62289;-70
2022/09/15 02:58:44;;;;;;;5.20;3.40;;;;;;;15.22;85.25;99929.84;107906;1241;60437;-75
2022/09/15 03:01:14;;;;;;;6.20;3.80;;;;;;;15.23;85.83;99924.58;108000;1241;72474;-74
2022/09/15 03:03:44;;;;;;;5.50;3.50;;;;;;;15.23;85.78;99926.02;108224;1241;71116;-72
2022/09/15 03:06:16;;;;;;;5.70;3.30;;;;;;;15.25;84.53;99925.10;107803;1243;67958;-72
2022/09/15 03:08:55;;;;;;;6.00;3.50;;;;;;;15.24;83.66;99918.55;107725;1242;74329;-73
2022/09/15 03:11:27;;;;;;;5.30;3.30;;;;;;;15.24;83.99;99925.08;108002;1241;62809;-72
2022/09/15 03:13:59;;;;;;;4.20;3.10;;;;;;;15.24;83.59;99923.79;107690;1241;59272;-73
2022/09/15 03:16:31;;;;;;;6.50;3.70;;;;;;;15.26;84.65;99926.55;107692;1242;73599;-72
2022/09/15 03:19:01;;;;;;;5.90;3.60;;;;;;;15.26;85.42;99937.34;107941;1239;69671;-72
2022/09/15 03:21:30;;;;;;;9.20;4.10;;;;;;;15.24;85.36;99934.38;107714;1242;69701;-70
2022/09/15 03:23:59;;;;;;;11.70;6.10;;;;;;;15.24;85.03;99929.84;107930;1241;74316;-72
2022/09/15 03:26:28;;;;;;;6.50;3.80;;;;;;;15.23;84.90;99928.13;108013;1242;61685;-75
2022/09/15 03:28:57;;;;;;;8.20;5.10;;;;;;;15.24;83.78;99920.80;108211;1241;61244;-72
2022/09/15 03:31:25;;;;;;;14.30;8.90;;;;;;;15.29;82.90;99920.52;108041;1241;74496;-70
2022/09/15 03:33:55;;;;;;;15.80;9.20;;;;;;;15.35;82.17;99915.13;108012;1241;70365;-71
2022/09/15 03:36:23;;;;;;;9.00;4.80;;;;;;;15.41;82.69;99904.36;108030;1241;69721;-71
2022/09/15 03:38:52;;;;;;;8.70;4.60;;;;;;;15.44;81.86;99899.83;107933;1243;72101;-69
2022/09/15 03:41:21;;;;;;;9.50;4.50;;;;;;;15.48;81.91;99892.73;107935;1241;60770;-72
2022/09/15 03:43:51;;;;;;;7.90;4.40;;;;;;;15.52;81.71;99895.27;108029;1241;60078;-74
2022/09/15 03:46:20;;;;;;;5.50;3.90;;;;;;;15.55;81.20;99905.61;108068;1240;71811;-71
2022/09/15 03:48:56;;;;;;;13.90;4.20;;;;;;;15.58;81.09;99916.20;108177;1241;72416;-70
2022/09/15 03:51:25;;;;;;;8.50;3.60;;;;;;;15.61;80.68;99918.32;108196;1241;69214;-72
2022/09/15 03:53:54;;;;;;;7.70;3.90;;;;;;;15.62;80.28;99918.20;108263;1240;71149;-71
2022/09/15 03:56:30;;;;;;;13.80;4.10;;;;;;;15.66;80.27;99919.29;108161;1241;61347;-67
2022/09/15 03:59:01;;;;;;;9.40;4.30;;;;;;;15.64;80.85;99916.80;108000;1241;61120;-64
2022/09/15 04:01:31;;;;;;;10.00;4.30;;;;;;;15.66;80.52;99920.47;108189;1240;73052;-69
2022/09/15 04:04:01;;;;;;;12.70;4.40;;;;;;;15.67;80.94;99913.23;108053;1241;71039;-67
2022/09/15 04:06:30;;;;;;;8.40;3.50;;;;;;;15.68;79.97;99913.49;108128;1241;69152;-66
2022/09/15 04:08:59;;;;;;;13.50;4.30;;;;;;;15.65;80.20;99908.48;108122;1241;71470;-77
2022/09/15 04:11:28;;;;;;;10.50;4.10;;;;;;;15.62;81.34;99913.79;108112;1241;63671;-68
2022/09/15 04:13:57;;;;;;;10.90;4.20;;;;;;;15.65;80.79;99920.83;107836;1241;60020;-67
2022/09/15 04:16:27;;;;;;;16.30;5.10;;;;;;;15.69;80.26;99925.60;108198;1241;73320;-67
2022/09/15 04:18:56;;;;;;;13.40;5.00;;;;;;;15.68;81.20;99920.59;108184;1240;72888;-71
2022/09/15 04:21:25;;;;;;;17.40;4.00;;;;;;;15.70;80.43;99913.88;108093;1241;68576;-65
2022/09/15 04:23:54;;;;;;;8.20;4.00;;;;;;;15.71;80.18;99909.48;107961;1241;71150;-68
2022/09/15 04:26:36;;;;;;;9.20;4.10;;;;;;;15.74;79.55;99914.22;108104;1241;60646;-68
2022/09/15 04:29:12;;;;;;;11.40;4.80;;;;;;;15.75;80.16;99917.57;107832;1241;60479;-67
2022/09/15 04:31:41;;;;;;;25.40;6.50;;;;;;;15.78;81.10;99920.05;108629;1241;73657;-66
2022/09/15 04:34:10;;;;;;;19.10;8.40;;;;;;;15.86;80.06;99917.98;108181;1241;71704;-68
2022/09/15 04:36:39;;;;;;;17.60;8.00;;;;;;;15.89;80.74;99913.94;108077;1241;68428;-69
2022/09/15 04:39:08;;;;;;;15.50;8.10;;;;;;;15.90;81.14;99913.36;107837;1241;73013;-71
2022/09/15 04:41:37;;;;;;;21.70;7.80;;;;;;;15.96;80.87;99912.52;108111;1241;61871;-67
2022/09/15 04:44:06;;;;;;;27.40;10.00;;;;;;;16.05;79.97;99903.98;107828;1241;61916;-77
2022/09/15 04:46:34;;;;;;;18.80;7.70;;;;;;;16.13;80.03;99904.00;108125;1241;72875;-69
2022/09/15 04:49:03;;;;;;;30.30;7.90;;;;;;;16.22;79.08;99900.21;108104;1241;70666;-69
2022/09/15 04:51:32;;;;;;;29.10;7.80;;;;;;;16.27;79.30;99901.05;108139;1241;67529;-66
2022/09/15 04:54:00;;;;;;;18.40;6.90;;;;;;;16.35;78.62;99894.22;108118;1241;73985;-68
2022/09/15 04:56:29;;;;;;;24.20;7.00;;;;;;;16.44;78.65;99893.39;108164;1241;63726;-67
2022/09/15 04:58:59;;;;;;;23.00;6.80;;;;;;;16.53;78.76;99894.91;108061;1241;60351;-67
2022/09/15 05:01:34;;;;;;;15.50;5.70;;;;;;;16.61;78.01;99891.14;108076;1241;74465;-68
2022/09/15 05:04:04;;;;;;;37.30;7.40;;;;;;;16.68;77.65;99890.59;108110;1241;62327;-67
2022/09/15 05:06:34;;;;;;;19.80;5.70;;;;;;;16.77;78.16;99892.40;108070;1241;69283;-68
2022/09/15 05:09:05;;;;;;;11.20;5.60;;;;;;;16.90;77.07;99891.68;107881;1242;74183;-68
2022/09/15 05:11:37;;;;;;;18.40;6.40;;;;;;;17.02;76.21;99887.67;107896;1242;61077;-69
2022/09/15 05:14:08;;;;;;;19.50;5.90;;;;;;;17.17;76.24;99888.42;107962;1241;61508;-68
2022/09/15 05:16:38;;;;;;;22.30;6.10;;;;;;;17.33;75.86;99874.35;108083;1241;72423;-70
2022/09/15 05:19:09;;;;;;;29.10;6.60;;;;;;;17.47;75.77;99873.63;107770;1241;72270;-68
2022/09/15 05:21:38;;;;;;;18.60;5.90;;;;;;;17.60;75.63;99870.13;107639;1241;60797;-69
2022/09/15 05:24:08;;;;;;;19.60;6.10;;;;;;;17.78;75.37;99860.88;107629;1241;64923;-69
2022/09/15 05:26:37;;;;;;;17.70;5.50;;;;;;;17.98;74.93;99851.48;108017;1240;59574;-67
2022/09/15 05:29:06;;;;;;;15.40;5.10;;;;;;;18.21;74.21;99846.02;108056;1241;60261;-69
2022/09/15 05:31:35;;;;;;;11.40;4.40;;;;;;;18.44;73.81;99846.46;108062;1241;74183;-69
2022/09/15 05:34:05;;;;;;;14.10;4.80;;;;;;;18.66;70.07;99843.07;108079;1241;70512;-68
2022/09/15 05:36:34;;;;;;;10.50;4.70;;;;;;;18.92;68.97;99848.61;108091;1241;70205;-73
2022/09/15 05:39:02;;;;;;;12.20;4.50;;;;;;;19.18;64.37;99847.39;107970;1241;73515;-69
2022/09/15 05:41:31;;;;;;;9.00;4.30;;;;;;;19.44;66.55;99845.81;107976;1241;61523;-68
2022/09/15 05:44:01;;;;;;;10.00;4.10;;;;;;;19.68;65.51;99851.48;108099;1241;57780;-68
2022/09/15 05:46:29;;;;;;;10.50;3.70;;;;;;;19.84;63.18;99849.11;107998;1244;73673;-67
2022/09/15 05:48:58;;;;;;;7.00;3.60;;;;;;;19.97;63.59;99841.49;107991;1241;62834;-71
2022/09/15 05:51:28;;;;;;;10.90;3.90;;;;;;;20.05;62.11;99830.71;108155;1241;59605;-71
2022/09/15 05:53:57;;;;;;;10.50;3.90;;;;;;;20.18;62.22;99824.23;108194;1241;72105;-69
2022/09/15 05:56:26;;;;;;;10.00;4.10;;;;;;;20.20;60.56;99814.36;108369;1241;59604;-69
2022/09/15 05:58:55;;;;;;;14.10;6.10;;;;;;;20.33;60.59;99817.86;108152;1241;61615;-70
2022/09/15 06:01:26;;;;;;;18.30;4.50;;;;;;;20.44;61.00;99824.92;108064;1241;74624;-71
2022/09/15 06:03:57;;;;;;;11.00;4.30;;;;;;;20.58;60.90;99822.85;110279;1240;72840;-72
2022/09/15 06:06:26;;;;;;;9.80;3.40;;;;;;;20.73;62.09;99819.67;110238;1241;59781;-74
2022/09/15 06:08:57;;;;;;;9.00;3.60;;;;;;;20.84;60.06;99810.58;110450;1240;63684;-71
2022/09/15 06:11:29;;;;;;;8.40;4.20;;;;;;;20.98;59.69;99804.86;109299;1241;60248;-70
2022/09/15 06:14:01;;;;;;;11.40;4.00;;;;;;;21.14;60.50;99801.55;110447;1240;58374;-71
2022/09/15 06:16:33;;;;;;;11.90;3.60;;;;;;;21.28;59.40;99798.27;109050;1241;74408;-67
2022/09/15 06:19:03;;;;;;;12.20;3.80;;;;;;;21.35;58.67;99790.14;108030;1241;63657;-67
2022/09/15 06:21:32;;;;;;;10.60;3.60;;;;;;;21.40;58.98;99789.85;108362;1241;69760;-68
2022/09/15 06:24:05;;;;;;;8.30;4.10;;;;;;;21.52;58.91;99788.88;108138;1241;62997;-72
2022/09/15 06:26:34;;;;;;;11.70;3.80;;;;;;;21.61;58.15;99789.04;108238;1241;61290;-70
2022/09/15 06:29:04;;;;;;;13.30;4.40;;;;;;;21.70;57.80;99790.39;107960;1244;59523;-70
2022/09/15 06:31:35;;;;;;;9.30;3.70;;;;;;;21.67;56.40;99794.88;108275;1241;74471;-73
2022/09/15 06:34:04;;;;;;;8.50;3.50;;;;;;;21.70;55.92;99798.07;108033;1241;70797;-71
2022/09/15 06:36:33;;;;;;;12.10;4.00;;;;;;;21.79;56.58;99799.98;108305;1241;71026;-70
2022/09/15 06:39:01;;;;;;;16.40;4.50;;;;;;;21.89;57.63;99798.41;108145;1241;63647;-70
2022/09/15 06:41:30;;;;;;;9.80;4.30;;;;;;;21.89;56.27;99796.30;108014;1242;59704;-70
2022/09/15 06:44:19;;;;;;;11.10;4.80;;;;;;;21.89;55.67;99802.39;108267;1241;58389;-70
2022/09/15 06:46:48;;;;;;;13.70;4.90;;;;;;;21.77;55.92;99799.21;108162;1241;62979;-70
2022/09/15 06:49:18;;;;;;;15.70;5.10;;;;;;;21.92;57.17;99801.48;107992;1241;61685;-69
2022/09/15 06:51:47;;;;;;;14.20;5.40;;;;;;;22.06;56.84;99795.54;107948;1244;59233;-73
2022/09/15 06:54:16;;;;;;;17.30;6.30;;;;;;;22.12;56.81;99793.98;108294;1241;73934;-70
2022/09/15 06:56:46;;;;;;;13.80;5.40;;;;;;;22.14;57.10;99790.35;108193;1241;59549;-73
2022/09/15 06:59:15;;;;;;;16.60;5.70;;;;;;;22.17;57.31;99786.70;108285;1241;60527;-71
2022/09/15 07:01:54;;;;;;;12.40;5.50;;;;;;;22.17;57.85;99786.10;108227;1241;73622;-73
2022/09/15 07:04:22;;;;;;;;;;;;;;;22.19;58.01;99790.86;107788;1241;72359;-70
2022/09/15 07:06:51;;;;;;;10.90;5.10;;;;;;;22.17;57.86;99788.52;107876;1241;60627;-69
2022/09/15 07:09:20;;;;;;;8.00;3.70;;;;;;;22.19;57.15;99786.48;108169;1241;74251;-70
2022/09/15 07:11:48;;;;;;;13.50;4.40;;;;;;;22.19;56.46;99787.15;108196;1241;61249;-73
2022/09/15 07:14:17;;;;;;;9.70;3.80;;;;;;;22.23;56.70;99785.91;108205;1241;57740;-73
2022/09/15 07:16:46;;;;;;;12.80;5.10;;;;;;;22.11;55.94;99786.05;108338;1241;74684;-71
2022/09/15 07:19:14;;;;;;;11.30;4.30;;;;;;;22.11;56.50;99786.09;108345;1241;72609;-74
2022/09/15 07:21:43;;;;;;;9.30;3.20;;;;;;;22.13;56.58;99786.58;108083;1244;60466;-70
2022/09/15 07:24:13;;;;;;;5.40;3.10;;;;;;;22.10;56.44;99792.64;108180;1241;63488;-70
2022/09/15 07:26:42;;;;;;;5.30;2.50;;;;;;;22.06;56.21;99797.83;108256;1240;59538;-72
2022/09/15 07:29:11;;;;;;;5.00;2.50;;;;;;;22.02;55.52;99800.49;108224;1241;60450;-72
2022/09/15 07:31:40;;;;;;;8.40;3.20;;;;;;;21.97;55.62;99802.51;108285;1241;63562;-69
2022/09/15 07:34:09;;;;;;;6.00;3.10;;;;;;;21.93;55.97;99807.54;107834;1240;61714;-70
2022/09/15 07:36:37;;;;;;;7.00;3.00;;;;;;;21.85;55.74;99807.79;108062;1244;70770;-71
2022/09/15 07:39:06;;;;;;;6.60;3.30;;;;;;;21.85;55.86;99806.69;108324;1241;74341;-70
2022/09/15 07:41:35;;;;;;;9.00;3.10;;;;;;;21.83;56.00;99804.75;108048;1244;58022;-71
2022/09/15 07:44:07;;;;;;;7.60;2.90;;;;;;;21.84;55.86;99801.41;108132;1241;59526;-71
2022/09/15 07:46:35;;;;;;;4.90;2.80;;;;;;;21.86;55.83;99805.30;108269;1241;64085;-72
2022/09/15 07:49:05;;;;;;;5.60;2.90;;;;;;;21.87;55.39;99808.69;108224;1241;60861;-70
2022/09/15 07:51:34;;;;;;;7.70;3.00;;;;;;;21.86;55.36;99814.98;108253;1241;70015;-70
2022/09/15 07:54:02;;;;;;;5.90;3.00;;;;;;;21.91;55.01;99814.00;108345;1241;63942;-72
2022/09/15 07:56:31;;;;;;;4.90;2.80;;;;;;;21.92;55.22;99807.01;107982;1244;58817;-71
2022/09/15 07:59:00;;;;;;;6.70;2.70;;;;;;;21.87;55.76;99802.02;108308;1241;61294;-73
2022/09/15 08:01:29;;;;;;;4.40;2.80;;;;;;;21.82;56.11;99801.13;108255;1240;75500;-67
2022/09/15 08:03:57;;;;;;;6.70;3.50;;;;;;;21.72;57.51;99801.67;108079;1241;63511;-70
2022/09/15 08:06:26;;;;;;;9.80;3.30;;;;;;;21.68;58.24;99805.72;108074;1241;59192;-70
2022/09/15 08:08:55;;;;;;;10.10;4.10;;;;;;;21.68;58.81;99811.85;107843;1244;62372;-72
2022/09/15 08:11:28;;;;;;;6.80;3.40;;;;;;;21.71;58.13;99824.07;108228;1241;59648;-69
2022/09/15 08:14:01;;;;;;;6.50;3.50;;;;;;;21.73;58.83;99830.86;108063;1242;59499;-75
2022/09/15 08:16:29;;;;;;;7.00;3.90;;;;;;;21.70;63.21;99836.91;108212;1241;73611;-70
2022/09/15 08:18:58;;;;;;;9.00;3.60;;;;;;;21.75;62.27;99833.64;108086;1241;61381;-72
2022/09/15 08:21:28;;;;;;;8.90;3.60;;;;;;;21.74;61.61;99822.30;107997;1241;59789;-73
2022/09/15 08:23:58;;;;;;;8.50;3.80;;;;;;;21.79;59.46;99822.80;107876;1241;73135;-75
2022/09/15 08:26:28;;;;;;;7.70;4.40;;;;;;;21.86;59.02;99824.06;107846;1241;59609;-72
2022/09/15 08:28:58;;;;;;;8.60;4.60;;;;;;;21.82;58.34;99821.70;107888;1241;60518;-70
2022/09/15 08:31:27;;;;;;;9.00;4.00;;;;;;;21.89;58.45;99820.27;107827;1241;74665;-70
2022/09/15 08:33:55;;;;;;;9.20;3.70;;;;;;;21.97;59.69;99811.38;108032;1241;70997;-73
2022/09/15 08:36:26;;;;;;;13.20;3.80;;;;;;;21.99;59.93;99807.20;107875;1243;60119;-71
2022/09/15 08:38:55;;;;;;;10.80;3.40;;;;;;;22.03;59.70;99805.52;107740;1241;74004;-71
2022/09/15 08:41:35;;;;;;;8.20;3.30;;;;;;;21.99;59.33;99805.52;108203;1241;61144;-73
2022/09/15 08:44:31;;;;;;;8.70;3.90;;;;;;;22.00;58.74;99808.35;108287;1241;62888;-71
2022/09/15 08:47:14;;;;;;;8.70;4.20;;;;;;;22.03;58.68;99804.78;108213;1241;73033;-73
2022/09/15 08:50:04;;;;;;;15.40;3.90;;;;;;;21.96;58.90;99801.57;108252;1241;72425;-70
2022/09/15 08:52:56;;;;;;;7.60;3.80;;;;;;;22.03;58.74;99803.89;108020;1244;60956;-70
2022/09/15 08:55:45;;;;;;;11.10;4.30;;;;;;;22.00;59.10;99805.27;108223;1241;72060;-76
2022/09/15 08:58:19;;;;;;;12.00;3.90;;;;;;;22.03;59.45;99799.99;107719;1241;61010;-71
2022/09/15 09:00:53;;;;;;;10.60;4.40;;;;;;;22.05;59.56;99805.80;108070;1241;60270;-74
2022/09/15 09:03:40;;;;;;;9.00;3.70;;;;;;;22.07;59.01;99808.49;107658;1241;75022;-70
2022/09/15 09:06:37;;;;;;;7.40;3.50;;;;;;;22.10;58.87;99816.20;108123;1241;72913;-72
2022/09/15 09:09:27;;;;;;;10.50;4.50;;;;;;;22.14;59.01;99822.72;107951;1244;69205;-72
2022/09/15 09:12:17;;;;;;;14.40;5.00;;;;;;;22.10;58.28;99829.30;107853;1244;63374;-70
2022/09/15 09:15:31;;;;;;;14.90;4.50;;;;;;;22.17;57.94;99826.95;107844;1243;59674;-70
2022/09/15 09:18:11;;;;;;;10.20;4.50;;;;;;;22.24;58.37;99817.17;107550;1244;61326;-71
2022/09/15 09:20:48;;;;;;;8.30;4.40;;;;;;;22.23;58.94;99813.08;108214;1241;64593;-70
2022/09/15 09:23:23;;;;;;;8.40;4.50;;;;;;;22.24;58.70;99812.46;108126;1241;61007;-73
2022/09/15 09:25:55;;;;;;;8.00;4.00;;;;;;;22.26;59.04;99808.58;107987;1244;59562;-74
2022/09/15 09:28:40;;;;;;;13.00;4.70;;;;;;;22.29;59.32;99810.16;108037;1241;62490;-71
2022/09/15 09:31:17;;;;;;;9.30;4.90;;;;;;;22.35;59.66;99811.63;108116;1241;60680;-69
2022/09/15 09:34:05;;;;;;;10.70;4.30;;;;;;;22.41;59.94;99805.38;108303;1241;61003;-71
2022/09/15 09:36:33;;;;;;;9.60;4.50;;;;;;;22.46;60.73;99800.08;108348;1241;74264;-71
2022/09/15 09:39:03;;;;;;;11.30;4.70;;;;;;;22.49;60.58;99801.45;108285;1241;60735;-73
2022/09/15 09:41:35;;;;;;;9.60;4.20;;;;;;;22.60;60.13;99806.66;107959;1241;60015;-70
2022/09/15 09:44:11;;;;;;;10.50;4.60;;;;;;;22.73;60.18;99806.45;108118;1241;62341;-70
2022/09/15 09:46:41;;;;;;;9.90;4.60;;;;;;;22.94;59.85;99805.84;108358;1241;58316;-69
2022/09/15 09:49:25;;;;;;;11.40;5.20;;;;;;;23.15;59.46;99802.80;108277;1241;59554;-71
2022/09/15 09:52:01;;;;;;;13.00;4.70;;;;;;;23.38;58.91;99815.35;108037;1241;74454;-73
2022/09/15 09:54:32;;;;;;;10.30;4.50;;;;;;;23.56;59.01;99816.21;108360;1241;64228;-72
2022/09/15 09:57:13;;;;;;;9.00;3.90;;;;;;;23.70;58.59;99809.70;108097;1243;60418;-72
2022/09/15 09:59:49;;;;;;;10.60;4.30;;;;;;;23.79;58.30;99797.51;108299;1241;63346;-71
2022/09/15 10:02:23;;;;;;;8.80;4.40;;;;;;;23.88;58.29;99799.22;108335;1240;61369;-74
2022/09/15 10:05:19;;;;;;;11.80;4.10;;;;;;;24.05;58.31;99800.50;108382;1241;58252;-70
2022/09/15 10:07:48;;;;;;;15.10;4.40;;;;;;;24.31;57.87;99801.87;108363;1241;74470;-73
2022/09/15 10:10:31;;;;;;;8.60;4.30;;;;;;;24.51;57.55;99796.16;108362;1241;72591;-71
2022/09/15 10:13:02;;;;;;;9.80;4.30;;;;;;;24.72;57.26;99784.19;108274;1241;70367;-75
2022/09/15 10:15:34;;;;;;;10.20;4.00;;;;;;;24.95;56.18;99779.03;108117;1242;63065;-71
2022/09/15 10:18:02;;;;;;;9.10;4.30;;;;;;;25.23;55.02;99779.15;108063;1241;60541;-69
2022/09/15 10:20:50;;;;;;;7.90;4.20;;;;;;;25.48;55.06;99782.58;108315;1241;61210;-70
2022/09/15 10:23:20;;;;;;;10.20;4.60;;;;;;;25.67;54.02;99787.06;108418;1241;73561;-72
2022/09/15 10:25:51;;;;;;;8.70;4.80;;;;;;;25.71;52.95;99781.00;108258;1241;61998;-70
2022/09/15 10:28:28;;;;;;;8.50;4.30;;;;;;;25.81;53.33;99779.12;107916;1241;70932;-71
2022/09/15 10:31:00;;;;;;;5.60;3.20;;;;;;;26.01;52.24;99768.59;108315;1241;73850;-71
2022/09/15 10:33:42;;;;;;;6.30;3.10;;;;;;;26.01;51.39;99763.08;108323;1241;59014;-70
2022/09/15 10:36:12;;;;;;;4.70;3.10;;;;;;;26.04;50.58;99765.65;108320;1241;60470;-71
2022/09/15 10:38:48;;;;;;;7.70;2.90;;;;;;;25.96;50.44;99764.63;108244;1241;75104;-69
2022/09/15 10:41:51;;;;;;;9.40;3.10;;;;;;;26.02;49.59;99765.29;108411;1241;72953;-73
2022/09/15 10:45:02;;;;;;;;;;;;;;;25.96;49.71;99773.29;108294;1241;70471;-71
2022/09/15 10:47:51;;;;;;;6.90;2.90;;;;;;;25.93;49.56;99779.05;108002;1241;74291;-71
2022/09/15 10:50:39;;;;;;;4.50;2.90;;;;;;;25.94;49.42;99771.59;108197;1241;61793;-71
2022/09/15 10:53:16;;;;;;;9.70;3.00;;;;;;;25.87;49.63;99767.87;108289;1241;61699;-74
2022/09/15 10:56:03;;;;;;;6.20;3.30;;;;;;;25.88;50.18;99763.02;107967;1244;73493;-74
2022/09/15 10:59:06;;;;;;;5.30;3.00;;;;;;;25.98;50.07;99759.23;107954;1241;72746;-74
2022/09/15 11:01:48;;;;;;;;;;;;;;;26.08;49.59;99754.23;108274;1241;70190;-72
2022/09/15 11:04:43;;;;;;;5.40;2.50;;;;;;;26.18;49.37;99752.50;108379;1241;74340;-73
2022/09/15 11:07:20;;;;;;;4.50;2.40;;;;;;;26.06;49.11;99755.41;108264;1241;61025;-74
2022/09/15 11:10:00;;;;;;;5.40;3.00;;;;;;;26.03;49.33;99751.92;108303;1241;59072;-71
2022/09/15 11:13:30;;;;;;;7.10;3.20;;;;;;;26.03;49.16;99748.55;108264;1241;63061;-74
2022/09/15 11:16:58;;;;;;;5.90;2.20;;;;;;;25.96;49.42;99746.55;108166;1241;61104;-71
2022/09/15 11:19:58;;;;;;;6.10;2.40;;;;;;;25.96;49.51;99759.10;108365;1240;60051;-74
2022/09/15 11:23:04;;;;;;;3.80;2.50;;;;;;;25.93;49.55;99761.13;108355;1241;73144;-75
2022/09/15 11:25:41;;;;;;;7.00;2.30;;;;;;;25.88;49.89;99761.13;107851;1244;59616;-70
2022/09/15 11:28:24;;;;;;;4.20;2.10;;;;;;;25.90;50.13;99764.59;108286;1241;57928;-72
2022/09/15 11:31:18;;;;;;;5.30;2.50;;;;;;;25.95;50.35;99761.75;108275;1241;63858;-70
2022/09/15 11:33:52;;;;;;;5.80;2.40;;;;;;;26.12;50.02;99757.27;108055;1244;72209;-72
2022/09/15 11:36:43;;;;;;;7.20;2.40;;;;;;;26.21;49.29;99755.77;108321;1241;60534;-70
2022/09/15 11:39:27;;;;;;;5.30;2.60;;;;;;;26.51;48.60;99759.52;108344;1241;63289;-71
2022/09/15 11:42:17;;;;;;;5.90;2.20;;;;;;;26.63;48.44;99760.30;108354;1241;59633;-71
2022/09/15 11:44:47;;;;;;;4.00;1.70;;;;;;;26.75;47.88;99767.36;108336;1241;57860;-74
2022/09/15 11:47:58;;;;;;;4.30;1.80;;;;;;;26.69;47.51;99768.38;108239;1242;63765;-69
2022/09/15 11:50:36;;;;;;;3.30;1.70;;;;;;;26.60;47.54;99768.48;108021;1244;61722;-80
2022/09/15 11:53:26;;;;;;;6.40;1.80;;;;;;;26.39;48.24;99776.73;108093;1242;59209;-72
2022/09/15 11:56:25;;;;;;;4.20;1.90;;;;;;;26.28;48.37;99781.45;108157;1244;62541;-75
2022/09/15 11:59:29;;;;;;;5.70;1.90;;;;;;;26.15;48.39;99786.64;108386;1241;58181;-73
2022/09/15 12:02:22;;;;;;;4.20;1.80;;;;;;;26.00;49.21;99787.92;107233;1252;59618;-72
2022/09/15 12:05:16;;;;;;;5.40;2.20;;;;;;;25.94;50.02;99795.77;108190;1241;74466;-73